Time;durP1;ratioP1;P1;durP2;ratioP2;P2;SDS_P1;SDS_P2;PMS_P1;PMS_P2;Temp;Humidity;BMP_temperature;BMP_pressure;BME280_temperature;BME280_humidity;BME280_pressure;Samples;Min_cycle;Max_cycle;Signal;HPM_P1;HPM_P2
2021/11/30 00:01:43;;;;;;;14.50;9.20;;;3.70;99.90;;;;;;5032231;28;20239;-58
2021/11/30 00:04:12;;;;;;;22.15;11.07;;;3.70;99.90;;;;;;5032758;28;20661;-60
2021/11/30 00:06:42;;;;;;;15.25;11.00;;;3.70;99.90;;;;;;5040301;28;20612;-57
2021/11/30 00:10:43;;;;;;;13.70;9.73;;;3.70;99.90;;;;;;5032797;28;20213;-60
2021/11/30 00:12:15;;;;;;;16.42;10.30;;;3.70;99.90;;;;;;5030982;28;20221;-59
2021/11/30 00:14:47;;;;;;;13.60;10.15;;;3.70;99.90;;;;;;5032791;28;20197;-58
2021/11/30 00:17:16;;;;;;;15.13;9.98;;;3.70;99.90;;;;;;5032211;28;20229;-58
2021/11/30 00:19:45;;;;;;;15.13;9.77;;;3.70;99.90;;;;;;5032743;28;20210;-60
2021/11/30 00:22:17;;;;;;;13.98;9.77;;;3.70;99.90;;;;;;5032205;28;20217;-59
2021/11/30 00:24:45;;;;;;;17.00;9.85;;;3.70;99.90;;;;;;5032069;28;20204;-58
2021/11/30 00:27:14;;;;;;;15.98;10.40;;;3.70;99.90;;;;;;5030650;28;20245;-59
2021/11/30 00:29:42;;;;;;;14.77;8.60;;;3.70;99.90;;;;;;5032669;28;20566;-60
2021/11/30 00:32:11;;;;;;;15.00;7.40;;;3.70;99.90;;;;;;5030840;28;20278;-60
2021/11/30 00:34:39;;;;;;;14.15;9.57;;;3.70;99.90;;;;;;5032040;28;20197;-60
2021/11/30 00:37:07;;;;;;;12.60;7.88;;;3.70;99.90;;;;;;5031027;28;20284;-59
2021/11/30 00:39:37;;;;;;;9.40;7.88;;;3.70;99.90;;;;;;5032101;28;20189;-59
2021/11/30 00:42:05;;;;;;;16.08;7.32;;;3.70;99.90;;;;;;5031647;28;20224;-60
2021/11/30 00:44:36;;;;;;;11.27;6.70;;;3.70;99.90;;;;;;5031832;28;20244;-60
2021/11/30 00:47:15;;;;;;;13.98;7.50;;;3.70;99.90;;;;;;5036683;28;20771;-58
2021/11/30 00:49:43;;;;;;;11.18;6.65;;;3.70;99.90;;;;;;5050653;28;20720;-59
2021/11/30 00:52:12;;;;;;;8.45;6.53;;;3.70;99.90;;;;;;5046288;28;20240;-61
2021/11/30 00:54:42;;;;;;;9.40;6.20;;;3.70;99.90;;;;;;5031887;28;20610;-61
2021/11/30 00:57:12;;;;;;;10.25;6.03;;;3.70;99.90;;;;;;5031707;28;20235;-58
2021/11/30 00:59:41;;;;;;;8.65;5.63;;;3.70;99.90;;;;;;5030935;28;20196;-60
2021/11/30 01:02:09;;;;;;;9.85;6.40;;;3.70;99.90;;;;;;5031139;28;20225;-61
2021/11/30 01:04:37;;;;;;;11.43;7.43;;;3.70;99.90;;;;;;5031772;28;20251;-59
2021/11/30 01:07:07;;;;;;;10.25;8.00;;;3.70;99.90;;;;;;5044446;28;20216;-58
2021/11/30 01:09:36;;;;;;;7.97;7.00;;;3.70;99.90;;;;;;5052033;28;20191;-60
2021/11/30 01:12:06;;;;;;;11.05;8.27;;;3.60;99.90;;;;;;5051132;28;20746;-60
2021/11/30 01:14:34;;;;;;;10.95;6.70;;;3.70;99.90;;;;;;5051159;28;20230;-59
2021/11/30 01:17:02;;;;;;;10.10;6.80;;;3.70;99.90;;;;;;5051022;28;20220;-59
2021/11/30 01:19:30;;;;;;;8.85;5.80;;;3.70;99.90;;;;;;5051859;28;20188;-58
2021/11/30 01:21:58;;;;;;;8.68;6.38;;;3.70;99.90;;;;;;5032533;28;20221;-61
2021/11/30 01:24:26;;;;;;;9.98;6.65;;;3.70;99.90;;;;;;5031487;28;20189;-60
2021/11/30 01:26:54;;;;;;;9.77;7.43;;;3.70;99.90;;;;;;5030901;28;20278;-58
2021/11/30 01:29:24;;;;;;;8.30;6.00;;;3.80;99.90;;;;;;5031317;28;20687;-57
2021/11/30 01:31:52;;;;;;;8.52;6.35;;;3.80;99.90;;;;;;5031265;28;20229;-60
2021/11/30 01:34:20;;;;;;;8.15;5.15;;;3.80;99.90;;;;;;5031330;28;20664;-60
2021/11/30 01:36:48;;;;;;;12.25;5.78;;;3.80;99.90;;;;;;5031407;28;20251;-58
2021/11/30 01:39:16;;;;;;;12.23;4.90;;;3.80;99.90;;;;;;5031485;28;20217;-58
2021/11/30 01:41:45;;;;;;;6.63;5.07;;;3.80;99.90;;;;;;5031079;28;20184;-60
2021/11/30 01:44:25;;;;;;;9.27;5.47;;;3.80;99.90;;;;;;5030750;28;20259;-60
2021/11/30 01:47:06;;;;;;;6.03;4.57;;;3.80;99.90;;;;;;5030986;28;20224;-57
2021/11/30 01:49:35;;;;;;;10.35;4.97;;;3.80;99.90;;;;;;5031324;28;20220;-58
2021/11/30 01:52:05;;;;;;;9.80;4.90;;;3.80;99.90;;;;;;5031102;28;20220;-59
2021/11/30 01:54:33;;;;;;;6.93;5.07;;;3.80;99.90;;;;;;5030920;28;20196;-60
2021/11/30 01:57:02;;;;;;;6.90;5.00;;;3.90;99.90;;;;;;5031048;28;20633;-58
2021/11/30 01:59:30;;;;;;;6.80;4.72;;;3.90;99.90;;;;;;5032409;28;20209;-58
2021/11/30 02:01:59;;;;;;;5.45;4.35;;;3.90;99.90;;;;;;5034704;28;20229;-60
2021/11/30 02:04:27;;;;;;;7.03;4.60;;;3.90;99.90;;;;;;5034884;28;20606;-60
2021/11/30 02:06:57;;;;;;;10.32;4.70;;;3.90;99.90;;;;;;5047669;28;20216;-58
2021/11/30 02:09:27;;;;;;;9.10;4.32;;;3.90;99.90;;;;;;5050083;28;20610;-57
2021/11/30 02:11:55;;;;;;;5.25;4.38;;;4.00;99.90;;;;;;5034745;28;20220;-60
2021/11/30 02:14:24;;;;;;;6.05;3.75;;;4.00;99.90;;;;;;5034754;28;20259;-60
2021/11/30 02:16:55;;;;;;;6.32;3.78;;;4.00;99.90;;;;;;5034515;28;20252;-57
2021/11/30 02:19:24;;;;;;;7.90;3.70;;;4.00;99.90;;;;;;5050243;28;20189;-58
2021/11/30 02:21:54;;;;;;;6.13;3.50;;;4.00;99.90;;;;;;5034637;28;20225;-60
2021/11/30 02:24:22;;;;;;;6.03;4.30;;;4.10;99.90;;;;;;5035180;28;20243;-60
2021/11/30 02:26:50;;;;;;;7.78;5.18;;;4.10;99.90;;;;;;5034179;28;20729;-58
2021/11/30 02:29:18;;;;;;;6.43;4.85;;;4.10;99.90;;;;;;5034864;28;20219;-58
2021/11/30 02:31:49;;;;;;;6.07;3.90;;;4.10;99.90;;;;;;5035873;28;20197;-60
2021/11/30 02:34:18;;;;;;;5.93;3.95;;;4.00;99.90;;;;;;5054128;28;20646;-60
2021/11/30 02:36:52;;;;;;;5.50;3.60;;;4.00;99.90;;;;;;5037887;28;20205;-58
2021/11/30 02:39:23;;;;;;;6.82;4.03;;;4.00;99.90;;;;;;5034734;28;20226;-57
2021/11/30 02:41:53;;;;;;;7.60;3.63;;;4.00;99.90;;;;;;5033988;28;20271;-60
2021/11/30 02:44:24;;;;;;;10.02;4.30;;;3.90;99.90;;;;;;5034126;28;20614;-60
2021/11/30 02:46:56;;;;;;;6.10;3.55;;;3.90;99.90;;;;;;5053424;28;20221;-58
2021/11/30 02:49:27;;;;;;;6.55;4.65;;;3.90;99.90;;;;;;5054410;28;20223;-59
2021/11/30 02:52:02;;;;;;;5.45;3.95;;;3.80;99.90;;;;;;5047127;28;20217;-60
2021/11/30 02:54:32;;;;;;;5.70;3.53;;;3.90;99.90;;;;;;5034100;28;20193;-59
2021/11/30 02:57:02;;;;;;;6.65;4.22;;;3.80;99.90;;;;;;5032315;28;20288;-58
2021/11/30 02:59:34;;;;;;;7.25;3.70;;;3.80;99.90;;;;;;5034535;28;20195;-58
2021/11/30 03:02:04;;;;;;;4.82;3.63;;;3.80;99.90;;;;;;5033584;28;20571;-60
2021/11/30 03:04:32;;;;;;;4.80;3.47;;;3.80;99.90;;;;;;5033941;28;20239;-60
2021/11/30 03:07:00;;;;;;;8.43;3.75;;;3.80;99.90;;;;;;5047213;28;20291;-58
2021/11/30 03:09:28;;;;;;;5.95;3.38;;;3.80;99.90;;;;;;5053566;28;20847;-58
2021/11/30 03:11:58;;;;;;;6.18;3.28;;;3.80;99.90;;;;;;5052294;28;20690;-61
2021/11/30 03:14:28;;;;;;;4.70;3.42;;;3.80;99.90;;;;;;5033998;28;20263;-61
2021/11/30 03:16:57;;;;;;;5.75;3.30;;;3.80;99.90;;;;;;5033557;28;20307;-58
2021/11/30 03:19:28;;;;;;;5.20;3.10;;;3.80;99.90;;;;;;5033763;28;20313;-58
2021/11/30 03:21:57;;;;;;;7.07;3.58;;;3.80;99.90;;;;;;5032997;28;20225;-61
2021/11/30 03:24:26;;;;;;;4.43;3.38;;;3.80;99.90;;;;;;5033302;28;20193;-60
2021/11/30 03:26:55;;;;;;;5.40;3.10;;;3.80;99.90;;;;;;5033245;28;20279;-58
2021/11/30 03:29:24;;;;;;;3.30;2.80;;;3.80;99.90;;;;;;5033729;28;20221;-58
2021/11/30 03:31:59;;;;;;;3.05;2.75;;;3.80;99.90;;;;;;5033250;28;20229;-61
2021/11/30 03:34:27;;;;;;;5.07;3.58;;;3.80;99.90;;;;;;5032920;28;20193;-60
2021/11/30 03:36:56;;;;;;;3.63;2.42;;;3.80;99.90;;;;;;5031678;28;20292;-59
2021/11/30 03:39:27;;;;;;;3.47;2.13;;;3.80;99.90;;;;;;5052792;28;20239;-56
2021/11/30 03:41:57;;;;;;;4.13;2.92;;;3.90;99.90;;;;;;5053009;28;20224;-59
2021/11/30 03:44:28;;;;;;;3.30;2.35;;;3.80;99.90;;;;;;5033575;28;20251;-58
2021/11/30 03:46:57;;;;;;;4.65;2.10;;;3.90;99.90;;;;;;5032637;28;20275;-57
2021/11/30 03:49:26;;;;;;;1.85;1.65;;;3.90;99.90;;;;;;5033477;28;20221;-57
2021/11/30 03:51:56;;;;;;;1.65;1.55;;;3.90;99.90;;;;;;5032506;28;20234;-60
2021/11/30 03:54:25;;;;;;;2.78;1.98;;;3.90;99.90;;;;;;5033019;28;20189;-60
2021/11/30 03:56:53;;;;;;;2.85;1.63;;;3.90;99.90;;;;;;5032515;28;20217;-58
2021/11/30 03:59:21;;;;;;;6.13;2.20;;;3.90;99.90;;;;;;5033175;28;20193;-58
2021/11/30 04:01:51;;;;;;;1.65;1.55;;;3.90;99.90;;;;;;5032511;28;20232;-59
2021/11/30 04:04:23;;;;;;;1.90;1.25;;;4.00;99.90;;;;;;5059330;28;20702;-60
2021/11/30 04:06:54;;;;;;;5.18;1.58;;;4.00;99.90;;;;;;5047018;28;20243;-59
2021/11/30 04:09:24;;;;;;;1.83;1.20;;;4.10;99.90;;;;;;5052858;28;20281;-57
2021/11/30 04:11:53;;;;;;;3.17;1.48;;;4.10;99.90;;;;;;5050987;28;20605;-59
2021/11/30 04:14:25;;;;;;;2.08;1.10;;;4.20;99.90;;;;;;5033126;28;20205;-59
2021/11/30 04:16:55;;;;;;;1.05;0.93;;;4.20;99.90;;;;;;5032090;28;20698;-58
2021/11/30 04:19:23;;;;;;;1.30;1.20;;;4.20;99.90;;;;;;5032871;28;20189;-59
2021/11/30 04:21:52;;;;;;;1.25;1.15;;;4.20;99.90;;;;;;5031936;28;20221;-59
2021/11/30 04:24:20;;;;;;;2.10;1.00;;;4.40;99.90;;;;;;5047319;28;20193;-61
2021/11/30 04:26:48;;;;;;;1.27;1.17;;;4.30;99.90;;;;;;5032053;28;21227;-59
2021/11/30 04:29:16;;;;;;;1.80;1.00;;;4.30;99.90;;;;;;5032533;28;20236;-57
2021/11/30 04:31:44;;;;;;;1.10;1.00;;;4.40;99.90;;;;;;5050620;28;20195;-61
2021/11/30 04:34:16;;;;;;;1.10;1.00;;;4.40;99.90;;;;;;5051885;28;20185;-61
2021/11/30 04:36:44;;;;;;;1.27;1.17;;;4.40;99.90;;;;;;5045869;28;20212;-57
2021/11/30 04:39:12;;;;;;;2.78;1.45;;;4.40;99.90;;;;;;5032539;28;20639;-58
2021/11/30 04:41:42;;;;;;;1.40;1.13;;;4.50;99.90;;;;;;5032261;28;20197;-60
2021/11/30 04:44:11;;;;;;;1.30;1.20;;;4.50;99.90;;;;;;5033785;28;20647;-60
2021/11/30 04:46:44;;;;;;;1.10;0.98;;;4.50;99.90;;;;;;5031698;28;20713;-58
2021/11/30 04:49:16;;;;;;;1.42;1.33;;;4.60;99.90;;;;;;5044330;28;20212;-58
2021/11/30 04:51:44;;;;;;;1.25;0.98;;;4.70;99.90;;;;;;5051501;28;20578;-59
2021/11/30 04:54:12;;;;;;;1.30;1.20;;;4.60;99.90;;;;;;5031795;28;20536;-60
2021/11/30 04:56:40;;;;;;;4.50;0.80;;;4.70;99.90;;;;;;5031614;28;20216;-59
2021/11/30 04:59:09;;;;;;;2.13;1.42;;;4.70;99.90;;;;;;5031890;28;20561;-59
2021/11/30 05:01:37;;;;;;;2.38;1.15;;;4.70;99.90;;;;;;5031605;28;20603;-58
2021/11/30 05:04:05;;;;;;;1.35;1.25;;;4.70;99.90;;;;;;5030397;28;20602;-59
2021/11/30 05:06:35;;;;;;;1.30;1.10;;;4.70;99.90;;;;;;5031636;28;20196;-60
2021/11/30 05:09:04;;;;;;;1.50;1.40;;;4.70;99.90;;;;;;5030573;28;20267;-58
2021/11/30 05:11:32;;;;;;;2.58;1.50;;;4.60;99.90;;;;;;5031187;28;20197;-60
2021/11/30 05:14:00;;;;;;;1.60;1.40;;;4.70;99.90;;;;;;5031764;28;20585;-58
2021/11/30 05:16:28;;;;;;;1.40;1.20;;;4.60;99.90;;;;;;5031204;28;20725;-62
2021/11/30 05:18:57;;;;;;;1.42;1.33;;;4.60;99.90;;;;;;5031940;28;20209;-58
2021/11/30 05:21:26;;;;;;;1.88;1.55;;;4.60;99.90;;;;;;5031561;28;20205;-60
2021/11/30 05:24:01;;;;;;;1.80;1.70;;;4.60;99.90;;;;;;5031268;28;20599;-60
2021/11/30 05:26:30;;;;;;;1.65;1.50;;;4.60;99.90;;;;;;5049804;28;20221;-60
2021/11/30 05:28:58;;;;;;;1.63;1.52;;;4.60;99.90;;;;;;5035600;28;20209;-57
2021/11/30 05:31:26;;;;;;;2.55;2.28;;;4.60;99.90;;;;;;5031321;28;20185;-58
2021/11/30 05:33:55;;;;;;;2.35;2.17;;;4.60;99.90;;;;;;5031365;28;20309;-59
2021/11/30 05:36:23;;;;;;;4.65;2.20;;;4.50;99.90;;;;;;5035329;28;20263;-60
2021/11/30 05:38:51;;;;;;;4.05;2.88;;;4.60;99.90;;;;;;5050299;28;20233;-58
2021/11/30 05:41:21;;;;;;;3.08;2.10;;;4.60;99.90;;;;;;5035554;28;20200;-58
2021/11/30 05:43:49;;;;;;;3.30;2.53;;;4.60;99.90;;;;;;5035190;28;20217;-59
2021/11/30 05:46:19;;;;;;;3.28;2.72;;;4.60;99.90;;;;;;5035554;28;20597;-59
2021/11/30 05:48:47;;;;;;;2.83;2.60;;;4.60;99.90;;;;;;5035227;28;20229;-58
2021/11/30 05:51:17;;;;;;;3.95;3.30;;;4.60;99.90;;;;;;5035380;28;20212;-57
2021/11/30 05:53:45;;;;;;;3.95;3.50;;;4.60;99.90;;;;;;5054709;28;20232;-61
2021/11/30 05:56:13;;;;;;;3.42;2.83;;;4.60;99.90;;;;;;5054030;28;20204;-61
2021/11/30 05:58:44;;;;;;;4.68;3.70;;;4.70;99.90;;;;;;5041019;28;20217;-58
2021/11/30 06:01:21;;;;;;;4.50;3.05;;;4.70;99.90;;;;;;5035572;28;20272;-57
2021/11/30 06:06:37;;;;;;;4.22;2.85;;;4.80;99.90;;;;;;5034729;28;20227;-61
2021/11/30 06:09:09;;;;;;;3.63;3.33;;;4.80;99.90;;;;;;5035315;28;20308;-58
2021/11/30 06:11:37;;;;;;;3.05;2.75;;;4.90;99.90;;;;;;5034858;28;20193;-58
2021/11/30 06:14:07;;;;;;;3.33;3.03;;;4.90;99.90;;;;;;5034782;28;20193;-58
2021/11/30 06:16:35;;;;;;;3.50;3.00;;;4.90;99.90;;;;;;5033350;28;20240;-59
2021/11/30 06:19:04;;;;;;;4.38;2.65;;;5.00;99.90;;;;;;5034596;28;20766;-57
2021/11/30 06:21:33;;;;;;;3.42;2.65;;;5.00;99.90;;;;;;5034515;28;20205;-59
2021/11/30 06:24:01;;;;;;;4.20;3.25;;;5.00;99.90;;;;;;5034536;28;20416;-60
2021/11/30 06:26:29;;;;;;;3.30;2.85;;;5.00;99.90;;;;;;5053682;28;20192;-59
2021/11/30 06:28:57;;;;;;;3.22;2.67;;;5.00;99.90;;;;;;5038912;28;20707;-59
2021/11/30 06:31:27;;;;;;;3.00;2.72;;;5.00;99.90;;;;;;5034556;28;20224;-58
2021/11/30 06:33:55;;;;;;;3.80;3.38;;;5.10;99.90;;;;;;5034516;28;20320;-59
2021/11/30 06:36:23;;;;;;;3.05;2.70;;;5.10;99.90;;;;;;5034954;28;20192;-60
2021/11/30 06:38:51;;;;;;;3.58;2.95;;;5.10;99.90;;;;;;5053816;28;20231;-58
2021/11/30 06:41:19;;;;;;;3.20;2.90;;;5.20;99.90;;;;;;5054322;28;20188;-58
2021/11/30 06:43:48;;;;;;;2.67;2.45;;;5.20;99.90;;;;;;5053031;28;20224;-59
2021/11/30 06:46:16;;;;;;;3.80;2.80;;;5.30;99.90;;;;;;5052025;28;20203;-60
2021/11/30 06:48:46;;;;;;;3.08;2.60;;;5.30;99.90;;;;;;5052534;28;20250;-59
2021/11/30 06:51:16;;;;;;;3.17;2.78;;;5.30;99.90;;;;;;5054180;28;20302;-58
2021/11/30 06:53:44;;;;;;;3.55;2.60;;;5.20;99.90;;;;;;5039020;28;20213;-60
2021/11/30 06:56:12;;;;;;;4.32;3.17;;;5.30;99.90;;;;;;5033954;28;20189;-59
2021/11/30 06:58:40;;;;;;;5.10;3.28;;;5.30;99.90;;;;;;5033627;28;20312;-59
2021/11/30 07:01:10;;;;;;;5.32;2.75;;;5.30;99.90;;;;;;5034224;28;20193;-59
2021/11/30 07:03:38;;;;;;;2.80;2.60;;;5.30;99.90;;;;;;5033590;28;20630;-59
2021/11/30 07:06:15;;;;;;;3.60;3.30;;;5.30;99.90;;;;;;5033535;28;20210;-61
2021/11/30 07:08:54;;;;;;;4.20;2.63;;;5.30;99.90;;;;;;5033449;28;20302;-59
2021/11/30 07:11:36;;;;;;;4.25;3.08;;;5.40;99.90;;;;;;5041675;28;20262;-58
2021/11/30 07:14:05;;;;;;;4.95;3.25;;;5.40;99.90;;;;;;5038682;28;20239;-60
2021/11/30 07:16:34;;;;;;;5.47;3.40;;;5.50;99.90;;;;;;5053077;28;20266;-59
2021/11/30 07:19:04;;;;;;;7.53;4.30;;;5.60;99.90;;;;;;5053693;28;20212;-60
2021/11/30 07:21:34;;;;;;;4.63;4.05;;;5.60;99.90;;;;;;5049198;28;20209;-59
2021/11/30 07:24:02;;;;;;;6.00;3.75;;;5.60;99.90;;;;;;5032403;28;20586;-59
2021/11/30 07:26:30;;;;;;;4.00;3.60;;;5.60;99.90;;;;;;5033227;28;20193;-60
2021/11/30 07:28:59;;;;;;;3.85;2.97;;;5.60;99.90;;;;;;5033385;28;20221;-58
2021/11/30 07:31:27;;;;;;;4.50;3.10;;;5.70;99.90;;;;;;5044958;28;20212;-58
2021/11/30 07:33:57;;;;;;;5.13;3.60;;;5.70;99.90;;;;;;5052822;28;20273;-58
2021/11/30 07:36:26;;;;;;;4.47;3.70;;;5.70;99.90;;;;;;5053614;28;20196;-59
2021/11/30 07:38:56;;;;;;;4.10;3.70;;;5.70;99.90;;;;;;5036960;28;20240;-57
2021/11/30 07:41:24;;;;;;;6.20;3.60;;;5.70;99.90;;;;;;5033641;28;20189;-58
2021/11/30 07:43:53;;;;;;;6.10;4.10;;;5.70;99.90;;;;;;5032823;28;20340;-60
2021/11/30 07:46:21;;;;;;;3.75;3.42;;;5.70;99.90;;;;;;5033115;28;20663;-59
2021/11/30 07:48:49;;;;;;;5.07;3.33;;;5.70;99.90;;;;;;5032641;28;20225;-59
2021/11/30 07:51:18;;;;;;;4.20;3.80;;;5.80;99.90;;;;;;5033438;28;20224;-58
2021/11/30 07:53:46;;;;;;;3.78;3.15;;;5.80;99.90;;;;;;5040833;28;20235;-59
2021/11/30 07:56:15;;;;;;;5.88;3.58;;;5.90;99.90;;;;;;5053023;28;20254;-59
2021/11/30 07:58:44;;;;;;;4.22;3.47;;;5.90;99.90;;;;;;5038302;28;20271;-59
2021/11/30 08:01:14;;;;;;;3.55;2.97;;;5.90;99.90;;;;;;5032986;28;20612;-58
2021/11/30 08:03:43;;;;;;;5.10;3.40;;;6.00;99.90;;;;;;5032535;28;20228;-59
2021/11/30 08:06:12;;;;;;;3.72;3.40;;;6.00;99.90;;;;;;5032970;28;20567;-59
2021/11/30 08:08:41;;;;;;;3.53;3.00;;;6.10;99.90;;;;;;5049248;28;20228;-58
2021/11/30 08:11:10;;;;;;;2.80;2.60;;;6.10;99.90;;;;;;5052669;28;20690;-58
2021/11/30 08:13:40;;;;;;;3.20;2.90;;;6.10;99.90;;;;;;5039548;28;20228;-59
2021/11/30 08:16:08;;;;;;;4.13;3.08;;;6.20;99.90;;;;;;5032664;28;20197;-59
2021/11/30 08:18:37;;;;;;;5.35;3.72;;;6.20;99.90;;;;;;5032317;28;20279;-58
2021/11/30 08:21:06;;;;;;;3.97;3.58;;;6.30;99.90;;;;;;5031580;28;20574;-58
2021/11/30 08:23:34;;;;;;;2.40;2.20;;;6.30;99.90;;;;;;5032141;28;20252;-58
2021/11/30 08:26:02;;;;;;;3.20;2.90;;;6.30;99.90;;;;;;5032069;28;20561;-58
2021/11/30 08:28:31;;;;;;;3.05;2.15;;;6.30;99.90;;;;;;5032065;28;20279;-57
2021/11/30 08:31:00;;;;;;;2.72;2.35;;;6.40;99.90;;;;;;5032437;28;20299;-57
2021/11/30 08:33:28;;;;;;;3.17;2.90;;;6.50;99.90;;;;;;5032178;28;20232;-58
2021/11/30 08:35:56;;;;;;;2.38;2.17;;;6.50;99.90;;;;;;5050754;28;20184;-59
2021/11/30 08:38:25;;;;;;;3.95;2.85;;;6.50;99.90;;;;;;5048826;28;20282;-58
2021/11/30 08:40:55;;;;;;;2.60;2.40;;;6.60;99.90;;;;;;5052397;28;20173;-58
2021/11/30 08:43:23;;;;;;;2.75;2.55;;;6.60;99.90;;;;;;5040807;28;20308;-58
2021/11/30 08:45:54;;;;;;;2.70;2.50;;;6.60;99.90;;;;;;5039356;28;20185;-59
2021/11/30 08:48:24;;;;;;;4.35;3.53;;;6.60;99.90;;;;;;5033699;28;20224;-58
2021/11/30 08:50:54;;;;;;;3.80;3.40;;;6.70;99.90;;;;;;5051584;28;20205;-58
2021/11/30 08:53:23;;;;;;;3.53;3.20;;;6.70;99.90;;;;;;5046939;28;20226;-58
2021/11/30 08:55:52;;;;;;;4.00;2.70;;;6.70;99.90;;;;;;5051300;28;20196;-59
2021/11/30 08:58:20;;;;;;;3.95;3.55;;;6.80;99.90;;;;;;5048718;28;20219;-59
2021/11/30 09:00:49;;;;;;;5.93;3.85;;;6.90;99.90;;;;;;5051936;28;20200;-59
2021/11/30 09:03:17;;;;;;;3.55;3.25;;;6.80;99.90;;;;;;5051072;28;20220;-59
2021/11/30 09:05:47;;;;;;;4.93;4.53;;;6.80;99.90;;;;;;5042211;28;20199;-59
2021/11/30 09:08:16;;;;;;;4.40;4.00;;;6.90;99.90;;;;;;5030036;28;20220;-59
2021/11/30 09:10:44;;;;;;;4.60;4.20;;;6.80;99.90;;;;;;5032024;28;20236;-59
2021/11/30 09:13:13;;;;;;;4.32;3.92;;;6.80;99.90;;;;;;5031378;28;20232;-57
2021/11/30 09:15:41;;;;;;;5.07;4.43;;;6.80;99.90;;;;;;5041895;28;20195;-59
2021/11/30 09:18:09;;;;;;;3.85;3.55;;;6.80;99.90;;;;;;5049777;28;20311;-59
2021/11/30 09:20:38;;;;;;;5.30;4.80;;;6.90;99.90;;;;;;5044748;28;20200;-58
2021/11/30 09:23:07;;;;;;;4.68;4.30;;;6.90;99.90;;;;;;5050247;28;20227;-59
2021/11/30 09:25:35;;;;;;;4.65;4.25;;;6.90;99.90;;;;;;5051166;28;20215;-59
2021/11/30 09:28:04;;;;;;;4.85;4.35;;;6.90;99.90;;;;;;5043203;28;20764;-59
2021/11/30 09:30:35;;;;;;;5.55;4.03;;;6.90;99.90;;;;;;5036969;28;20603;-58
2021/11/30 09:33:04;;;;;;;4.07;3.72;;;7.00;99.90;;;;;;5050579;28;20240;-58
2021/11/30 09:35:32;;;;;;;4.72;4.32;;;7.00;99.90;;;;;;5049498;28;20189;-59
2021/11/30 09:38:00;;;;;;;4.15;3.85;;;7.00;99.90;;;;;;5050941;28;20300;-58
2021/11/30 09:40:33;;;;;;;4.28;3.80;;;7.00;99.90;;;;;;5051319;28;20193;-58
2021/11/30 09:43:21;;;;;;;3.83;3.53;;;;;;;;;;5040644;28;20225;-58
2021/11/30 09:45:50;;;;;;;4.20;3.35;;;7.10;99.90;;;;;;5031078;28;20205;-60
2021/11/30 09:48:18;;;;;;;3.03;2.83;;;7.20;99.90;;;;;;5032423;28;20749;-59
2021/11/30 09:50:47;;;;;;;3.50;3.05;;;7.20;99.90;;;;;;5051210;28;20266;-58
2021/11/30 09:53:16;;;;;;;2.90;2.70;;;7.20;99.90;;;;;;5048294;28;20315;-58
2021/11/30 09:55:48;;;;;;;2.95;2.58;;;7.20;99.90;;;;;;5051286;28;20207;-58
2021/11/30 09:58:18;;;;;;;1.80;1.67;;;7.20;99.90;;;;;;5048869;28;20301;-59
2021/11/30 10:00:49;;;;;;;1.80;1.70;;;7.30;99.90;;;;;;5033315;28;20192;-59
2021/11/30 10:03:19;;;;;;;2.25;2.05;;;7.40;99.90;;;;;;5050431;28;20223;-57
2021/11/30 10:05:48;;;;;;;2.28;2.03;;;7.40;99.90;;;;;;5049174;28;20219;-58
2021/11/30 10:08:29;;;;;;;2.22;1.80;;;7.40;99.90;;;;;;5050497;28;20244;-59
2021/11/30 10:11:11;;;;;;;2.13;1.92;;;7.40;99.90;;;;;;5051128;28;20219;-59
2021/11/30 10:13:46;;;;;;;3.42;1.85;;;7.40;99.90;;;;;;5036834;28;20233;-58
2021/11/30 10:16:15;;;;;;;2.30;2.10;;;7.50;99.90;;;;;;5031462;28;20255;-59
2021/11/30 10:18:43;;;;;;;2.17;2.08;;;7.50;99.90;;;;;;5030695;28;20231;-58
2021/11/30 10:21:21;;;;;;;6.38;3.58;;;7.50;99.90;;;;;;5034865;28;20606;-57
2021/11/30 10:23:53;;;;;;;2.28;2.08;;;7.50;99.90;;;;;;5052616;28;20306;-58
2021/11/30 10:26:25;;;;;;;2.53;1.98;;;7.60;99.90;;;;;;5054716;28;20199;-60
2021/11/30 10:28:58;;;;;;;2.50;2.17;;;7.60;99.90;;;;;;5043051;28;20225;-58
2021/11/30 10:31:32;;;;;;;2.33;2.10;;;7.60;99.90;;;;;;5034840;28;20220;-58
2021/11/30 10:34:10;;;;;;;2.78;2.50;;;7.70;99.90;;;;;;5034065;28;20210;-58
2021/11/30 10:36:46;;;;;;;2.40;2.20;;;7.70;99.90;;;;;;5034311;28;20246;-59
2021/11/30 10:39:20;;;;;;;3.22;2.83;;;7.70;99.90;;;;;;5034394;28;20728;-58
2021/11/30 10:41:51;;;;;;;2.75;2.55;;;7.80;99.90;;;;;;5049310;28;20196;-58
2021/11/30 10:44:29;;;;;;;2.10;2.00;;;7.80;99.90;;;;;;5034037;28;20450;-58
2021/11/30 10:47:08;;;;;;;3.03;2.72;;;7.80;99.90;;;;;;5048816;28;20247;-59
2021/11/30 10:49:45;;;;;;;3.03;2.78;;;7.80;99.90;;;;;;5036364;28;20184;-58
2021/11/30 10:52:17;;;;;;;3.47;2.92;;;7.80;99.90;;;;;;5050479;28;20229;-59
2021/11/30 10:54:46;;;;;;;3.25;2.85;;;7.80;99.90;;;;;;5034067;28;20197;-58
2021/11/30 10:57:15;;;;;;;2.20;2.00;;;7.80;99.90;;;;;;5033816;28;20606;-59
2021/11/30 10:59:44;;;;;;;2.80;2.50;;;7.80;99.90;;;;;;5034028;28;20194;-58
2021/11/30 11:02:13;;;;;;;3.22;2.95;;;7.80;99.90;;;;;;5034013;28;20221;-58
2021/11/30 11:04:42;;;;;;;3.30;3.00;;;7.80;99.90;;;;;;5034046;28;20197;-58
2021/11/30 11:07:12;;;;;;;2.85;2.65;;;7.80;99.90;;;;;;5033471;28;20279;-58
2021/11/30 11:09:44;;;;;;;3.17;2.50;;;7.80;99.90;;;;;;5034027;28;20198;-58
2021/11/30 11:12:13;;;;;;;2.70;2.33;;;7.80;99.90;;;;;;5032064;28;20221;-58
2021/11/30 11:14:47;;;;;;;2.72;2.53;;;7.80;99.90;;;;;;5033888;28;20221;-58
2021/11/30 11:17:28;;;;;;;3.50;2.30;;;7.80;99.90;;;;;;5033217;28;20259;-59
2021/11/30 11:19:57;;;;;;;2.40;2.20;;;7.80;99.90;;;;;;5032876;28;20263;-58
2021/11/30 11:22:28;;;;;;;1.85;1.75;;;7.80;99.90;;;;;;5031881;28;20268;-58
2021/11/30 11:24:58;;;;;;;2.97;2.35;;;7.80;99.90;;;;;;5036107;28;20682;-58
2021/11/30 11:27:31;;;;;;;2.13;1.92;;;7.80;99.90;;;;;;5050215;28;20655;-59
2021/11/30 11:30:02;;;;;;;2.05;1.83;;;7.80;99.90;;;;;;5033677;28;20644;-58
2021/11/30 11:32:31;;;;;;;3.15;1.95;;;7.90;99.90;;;;;;5031795;28;20261;-58
2021/11/30 11:34:59;;;;;;;2.13;1.92;;;7.90;99.90;;;;;;5033298;28;20224;-57
2021/11/30 11:37:28;;;;;;;1.85;1.52;;;8.00;99.90;;;;;;5039287;28;20225;-59
2021/11/30 11:39:56;;;;;;;2.10;1.92;;;7.90;99.90;;;;;;5053543;28;20197;-58
2021/11/30 11:42:24;;;;;;;2.03;1.50;;;8.00;99.90;;;;;;5049152;28;20247;-58
2021/11/30 11:44:55;;;;;;;2.53;1.50;;;7.90;99.90;;;;;;5050477;28;20547;-58
2021/11/30 11:47:27;;;;;;;1.90;1.52;;;7.90;99.90;;;;;;5052872;28;20229;-59
2021/11/30 11:49:56;;;;;;;5.15;2.13;;;8.00;99.90;;;;;;5053604;28;20276;-58
2021/11/30 11:52:27;;;;;;;4.50;2.55;;;8.00;99.90;;;;;;5051600;28;20635;-58
2021/11/30 11:55:02;;;;;;;1.17;1.00;;;7.90;99.90;;;;;;5052954;28;20200;-58
2021/11/30 11:57:32;;;;;;;1.98;1.80;;;7.90;99.90;;;;;;5048685;28;20222;-59
2021/11/30 12:00:19;;;;;;;2.10;1.70;;;7.90;99.90;;;;;;5032030;28;20293;-58
2021/11/30 12:02:53;;;;;;;1.40;1.30;;;7.90;99.90;;;;;;5032485;28;20783;-57
2021/11/30 12:05:40;;;;;;;1.90;1.70;;;7.90;99.90;;;;;;5031912;28;20313;-57
2021/11/30 12:08:18;;;;;;;1.73;1.63;;;7.90;99.90;;;;;;5032100;28;20644;-58
2021/11/30 12:10:47;;;;;;;1.70;1.60;;;7.90;99.90;;;;;;5033000;28;20197;-58
2021/11/30 12:13:22;;;;;;;2.03;1.88;;;7.90;99.90;;;;;;5032369;28;20217;-58
2021/11/30 12:16:00;;;;;;;1.75;1.65;;;7.90;99.90;;;;;;5032610;28;20197;-58
2021/11/30 12:18:33;;;;;;;1.55;1.38;;;7.90;99.90;;;;;;5032214;28;20217;-59
2021/11/30 12:21:12;;;;;;;2.22;1.73;;;7.90;99.90;;;;;;5031384;28;20189;-59
2021/11/30 12:23:41;;;;;;;1.95;1.73;;;8.00;99.90;;;;;;5040174;28;20241;-59
2021/11/30 12:26:34;;;;;;;2.00;1.83;;;8.00;99.90;;;;;;5032466;28;20652;-59
2021/11/30 12:29:05;;;;;;;2.42;2.00;;;8.00;99.90;;;;;;5032394;28;20596;-59
2021/11/30 12:31:36;;;;;;;2.28;2.05;;;8.00;99.90;;;;;;5034242;28;20198;-58
2021/11/30 12:34:07;;;;;;;3.33;2.25;;;8.10;99.90;;;;;;5051737;28;20725;-59
2021/11/30 12:36:38;;;;;;;1.83;1.67;;;8.00;99.90;;;;;;5051586;28;20188;-59
2021/11/30 12:39:08;;;;;;;3.00;2.38;;;8.00;99.90;;;;;;5032725;28;20245;-59
2021/11/30 12:41:38;;;;;;;2.22;2.00;;;8.00;99.90;;;;;;5031561;28;20239;-58
2021/11/30 12:44:10;;;;;;;2.90;2.38;;;8.10;99.90;;;;;;5034650;28;20215;-58
2021/11/30 12:46:41;;;;;;;5.28;2.25;;;8.10;99.90;;;;;;5050712;28;20196;-59
2021/11/30 12:49:30;;;;;;;2.58;2.30;;;8.10;99.90;;;;;;5052376;28;20214;-59
2021/11/30 12:52:11;;;;;;;2.40;1.67;;;8.10;99.90;;;;;;5045300;28;20227;-58
2021/11/30 12:54:41;;;;;;;4.07;2.05;;;8.10;99.90;;;;;;5041342;28;20208;-58
2021/11/30 12:57:12;;;;;;;2.33;2.13;;;8.10;99.90;;;;;;5049140;28;20702;-59
2021/11/30 13:00:00;;;;;;;2.72;2.53;;;8.20;99.90;;;;;;5032092;28;20201;-59
2021/11/30 13:02:34;;;;;;;2.75;1.98;;;8.20;99.90;;;;;;5034904;28;20587;-58
2021/11/30 13:05:26;;;;;;;2.50;2.30;;;8.10;99.90;;;;;;5051517;28;20239;-58
2021/11/30 13:08:10;;;;;;;2.50;2.25;;;8.20;99.90;;;;;;5051123;28;20231;-59
2021/11/30 13:10:44;;;;;;;1.90;1.80;;;8.20;99.90;;;;;;5050646;28;20670;-59
2021/11/30 13:13:18;;;;;;;2.95;2.17;;;8.20;99.90;;;;;;5040541;28;20545;-59
2021/11/30 13:15:49;;;;;;;2.97;2.33;;;8.20;99.90;;;;;;5045169;28;20239;-58